createdAt,value
2019-05-16T00:02:34.558Z,8.10
2019-05-16T00:05:31.088Z,8.10
2019-05-16T00:08:28.517Z,8.10
2019-05-16T00:11:25.572Z,8.10
2019-05-16T00:14:21.252Z,8.10
2019-05-16T00:17:18.877Z,8.10
2019-05-16T00:20:14.829Z,8.10
2019-05-16T00:23:11.657Z,8.10
2019-05-16T00:26:08.196Z,8.10
2019-05-16T00:29:04.897Z,8.10
2019-05-16T00:32:01.864Z,8.10
2019-05-16T00:34:58.381Z,8.10
2019-05-16T00:37:54.152Z,8.10
2019-05-16T00:40:50.533Z,8.00
2019-05-16T00:43:48.655Z,8.00
2019-05-16T00:46:45.682Z,8.00
2019-05-16T00:49:41.552Z,8.00
2019-05-16T00:52:39.315Z,7.90
2019-05-16T00:55:38.734Z,7.90
2019-05-16T00:58:38.035Z,7.90
2019-05-16T01:01:34.226Z,7.80
2019-05-16T01:04:30.065Z,7.80
2019-05-16T01:07:27.722Z,7.80
2019-05-16T01:10:25.200Z,7.80
2019-05-16T01:13:21.147Z,7.80
2019-05-16T01:16:18.718Z,7.70
2019-05-16T01:19:15.421Z,7.60
2019-05-16T01:22:12.069Z,7.70
2019-05-16T01:25:09.811Z,7.60
2019-05-16T01:28:08.667Z,7.60
2019-05-16T01:31:05.181Z,7.70
2019-05-16T01:34:01.859Z,7.60
2019-05-16T01:36:58.938Z,7.60
2019-05-16T01:39:55.451Z,7.60
2019-05-16T01:42:51.458Z,7.60
2019-05-16T01:45:48.701Z,7.50
2019-05-16T01:48:48.265Z,7.50
2019-05-16T01:51:43.587Z,7.50
2019-05-16T01:54:40.520Z,7.50
2019-05-16T01:57:38.831Z,7.50
2019-05-16T02:00:37.590Z,7.40
2019-05-16T02:03:31.977Z,7.50
2019-05-16T02:06:28.806Z,7.50
2019-05-16T02:09:27.902Z,7.40
2019-05-16T02:12:23.848Z,7.40
2019-05-16T02:15:20.610Z,7.30
2019-05-16T02:18:18.536Z,7.40
2019-05-16T02:21:14.262Z,7.30
2019-05-16T02:24:11.327Z,7.30
2019-05-16T02:27:09.730Z,7.30
2019-05-16T02:30:11.925Z,7.30
2019-05-16T02:33:05.670Z,7.30
2019-05-16T02:36:02.314Z,7.30
2019-05-16T02:39:01.843Z,7.30
2019-05-16T02:42:01.091Z,7.20
2019-05-16T02:44:56.237Z,7.20
2019-05-16T02:47:52.258Z,7.20
2019-05-16T02:50:51.184Z,7.20
2019-05-16T02:53:46.098Z,7.30
2019-05-16T02:56:42.509Z,7.20
2019-05-16T02:59:41.521Z,7.20
2019-05-16T03:02:41.573Z,7.20
2019-05-16T03:05:35.818Z,7.20
2019-05-16T03:08:34.169Z,7.20
2019-05-16T03:11:31.558Z,7.20
2019-05-16T03:14:31.715Z,7.20
2019-05-16T03:17:34.434Z,7.20
2019-05-16T03:20:33.366Z,7.20
2019-05-16T03:23:30.803Z,7.20
2019-05-16T03:26:41.636Z,7.20
2019-05-16T03:29:41.583Z,7.20
2019-05-16T03:32:36.147Z,7.20
2019-05-16T03:35:34.313Z,7.20
2019-05-16T03:38:30.951Z,7.10
2019-05-16T03:41:30.845Z,7.10
2019-05-16T03:44:25.888Z,7.20
2019-05-16T03:47:22.323Z,7.20
2019-05-16T03:50:21.706Z,7.20
2019-05-16T03:53:20.729Z,7.20
2019-05-16T03:56:15.093Z,7.10
2019-05-16T03:59:11.215Z,7.10
2019-05-16T04:02:11.090Z,7.20
2019-05-16T04:05:07.298Z,7.10
2019-05-16T04:08:18.446Z,7.10
2019-05-16T04:11:04.023Z,7.10
2019-05-16T04:14:01.496Z,7.10
2019-05-16T04:17:01.303Z,7.10
2019-05-16T04:20:01.889Z,7.10
2019-05-16T04:22:56.932Z,7.10
2019-05-16T04:26:07.637Z,7.10
2019-05-16T04:29:03.494Z,7.00
2019-05-16T04:32:01.525Z,7.00
2019-05-16T04:34:57.776Z,7.00
2019-05-16T04:37:54.496Z,7.10
2019-05-16T04:40:51.857Z,7.00
2019-05-16T04:43:50.569Z,7.10
2019-05-16T04:46:50.728Z,7.10
2019-05-16T04:49:45.571Z,7.00
2019-05-16T04:52:42.269Z,7.10
2019-05-16T04:55:38.008Z,7.00
2019-05-16T04:58:40.870Z,7.10
2019-05-16T05:01:36.743Z,7.10
2019-05-16T05:04:33.471Z,7.10
2019-05-16T05:07:31.220Z,7.00
2019-05-16T05:10:27.668Z,7.00
2019-05-16T05:13:24.149Z,7.00
2019-05-16T05:16:20.657Z,7.00
2019-05-16T05:19:20.042Z,7.00
2019-05-16T05:22:14.454Z,7.10
2019-05-16T05:25:11.431Z,7.20
2019-05-16T05:28:09.985Z,7.30
2019-05-16T05:31:05.764Z,7.40
2019-05-16T05:34:02.521Z,7.50
2019-05-16T05:37:00.325Z,7.50
2019-05-16T05:39:59.791Z,7.50
2019-05-16T05:42:55.603Z,7.50
2019-05-16T05:45:52.144Z,7.50
2019-05-16T05:48:50.682Z,7.60
2019-05-16T05:51:50.045Z,7.60
2019-05-16T05:54:47.478Z,7.60
2019-05-16T05:57:43.580Z,7.50
2019-05-16T06:00:40.744Z,7.50
2019-05-16T06:03:39.886Z,7.50
2019-05-16T06:06:37.379Z,7.60
2019-05-16T06:09:34.396Z,7.60
2019-05-16T06:12:30.862Z,7.60
2019-05-16T06:15:27.254Z,7.50
2019-05-16T06:18:23.651Z,7.50
2019-05-16T06:21:20.617Z,7.50
2019-05-16T06:24:17.092Z,7.50
2019-05-16T06:27:13.715Z,7.60
2019-05-16T06:30:11.606Z,7.60
2019-05-16T06:33:10.231Z,7.60
2019-05-16T06:36:07.097Z,7.60
2019-05-16T06:39:03.807Z,7.70
2019-05-16T06:42:00.665Z,7.60
2019-05-16T06:44:56.614Z,7.70
2019-05-16T06:47:53.437Z,7.70
2019-05-16T06:50:51.630Z,7.80
2019-05-16T06:53:46.823Z,7.80
2019-05-16T06:56:43.316Z,7.90
2019-05-16T06:59:40.484Z,7.90
2019-05-16T07:02:36.835Z,8.00
2019-05-16T07:05:32.716Z,8.10
2019-05-16T07:08:30.950Z,8.10
2019-05-16T07:11:30.478Z,8.20
2019-05-16T07:14:28.383Z,8.30
2019-05-16T07:17:23.199Z,8.30
2019-05-16T07:20:21.284Z,8.40
2019-05-16T07:23:20.622Z,8.40
2019-05-16T07:26:15.761Z,8.30
2019-05-16T07:29:12.092Z,8.30
2019-05-16T07:32:08.706Z,8.40
2019-05-16T07:35:05.399Z,8.40
2019-05-16T07:38:01.116Z,8.50
2019-05-16T07:40:59.906Z,8.60
2019-05-16T07:43:56.676Z,8.70
2019-05-16T07:46:53.738Z,8.90
2019-05-16T07:49:50.238Z,9.50
2019-05-16T07:52:46.474Z,9.70
2019-05-16T07:55:43.490Z,9.60
2019-05-16T07:58:41.343Z,9.70
2019-05-16T08:01:39.728Z,9.80
2019-05-16T08:04:34.778Z,9.60
2019-05-16T08:07:33.603Z,9.50
2019-05-16T08:10:37.914Z,9.40
2019-05-16T08:13:27.162Z,9.30
2019-05-16T08:16:24.242Z,9.20
2019-05-16T08:19:24.931Z,9.10
2019-05-16T08:22:18.980Z,9.00
2019-05-16T08:25:25.442Z,8.90
2019-05-16T08:28:22.565Z,9.00
2019-05-16T08:31:21.512Z,9.00
2019-05-16T08:34:17.194Z,9.00
2019-05-16T08:37:34.089Z,9.10
2019-05-16T08:40:12.733Z,9.20
2019-05-16T08:43:11.717Z,9.30
2019-05-16T08:46:07.201Z,9.40
2019-05-16T08:49:04.148Z,9.50
2019-05-16T08:52:01.609Z,9.70
2019-05-16T08:55:03.094Z,9.80
2019-05-16T08:57:56.577Z,10.00
2019-05-16T09:00:56.060Z,10.10
2019-05-16T09:03:52.018Z,10.00
2019-05-16T09:06:52.356Z,9.90
2019-05-16T09:09:51.209Z,9.80
2019-05-16T09:12:43.964Z,9.80
2019-05-16T09:15:42.083Z,9.80
2019-05-16T09:18:41.152Z,9.80
2019-05-16T09:21:38.347Z,9.70
2019-05-16T09:24:33.751Z,9.80
2019-05-16T09:27:32.981Z,9.80
2019-05-16T09:30:29.642Z,9.90
2019-05-16T09:33:26.925Z,10.00
2019-05-16T09:36:23.485Z,10.20
2019-05-16T09:39:19.356Z,10.20
2019-05-16T09:42:17.138Z,10.10
2019-05-16T09:45:13.422Z,10.10
2019-05-16T09:48:09.105Z,10.00
2019-05-16T09:51:06.695Z,10.00
2019-05-16T09:54:03.506Z,10.10
2019-05-16T09:56:59.532Z,10.10
2019-05-16T09:59:57.261Z,10.20
2019-05-16T10:02:53.510Z,10.50
2019-05-16T10:05:49.254Z,10.70
2019-05-16T10:08:46.497Z,10.80
2019-05-16T10:11:43.347Z,10.80
2019-05-16T10:14:40.087Z,10.80
2019-05-16T10:17:36.971Z,11.00
2019-05-16T10:20:33.493Z,11.30
2019-05-16T10:23:29.790Z,11.60
2019-05-16T10:26:27.752Z,11.60
2019-05-16T10:29:23.007Z,11.70
2019-05-16T10:32:19.038Z,11.50
2019-05-16T10:35:16.072Z,11.10
2019-05-16T10:38:12.496Z,10.90
2019-05-16T10:41:08.319Z,11.00
2019-05-16T10:44:06.272Z,11.50
2019-05-16T10:47:01.939Z,11.80
2019-05-16T10:49:58.244Z,12.00
2019-05-16T10:53:28.338Z,11.80
2019-05-16T10:56:10.993Z,11.80
2019-05-16T10:59:46.693Z,11.70
2019-05-16T11:02:07.566Z,11.50
2019-05-16T11:05:25.185Z,11.50
2019-05-16T11:08:08.108Z,11.40
2019-05-16T11:11:03.319Z,11.20
2019-05-16T11:14:00.225Z,11.20
2019-05-16T11:16:58.122Z,11.20
2019-05-16T11:19:56.656Z,11.20
2019-05-16T11:22:53.729Z,11.00
2019-05-16T11:25:49.933Z,10.70
2019-05-16T11:28:48.639Z,10.30
2019-05-16T11:31:46.646Z,10.10
2019-05-16T11:34:41.821Z,10.10
2019-05-16T11:37:38.699Z,10.20
2019-05-16T11:40:35.629Z,10.30
2019-05-16T11:43:32.154Z,10.30
2019-05-16T11:46:28.388Z,10.30
2019-05-16T11:49:27.395Z,10.30
2019-05-16T11:52:22.826Z,10.30
2019-05-16T11:55:19.722Z,10.30
2019-05-16T11:58:18.060Z,10.30
2019-05-16T12:01:16.372Z,10.40
2019-05-16T12:04:11.958Z,10.50
2019-05-16T12:07:09.395Z,10.60
2019-05-16T12:10:07.586Z,10.60
2019-05-16T12:13:23.813Z,10.70
2019-05-16T12:16:07.575Z,10.80
2019-05-16T12:19:03.950Z,10.70
2019-05-16T12:22:00.155Z,10.80
2019-05-16T12:24:57.438Z,10.80
2019-05-16T12:27:56.751Z,10.80
2019-05-16T12:30:52.486Z,10.30
2019-05-16T12:33:48.650Z,10.90
2019-05-16T12:36:47.225Z,10.80
2019-05-16T12:39:42.816Z,10.90
2019-05-16T12:42:39.046Z,11.00
2019-05-16T12:45:35.462Z,11.10
2019-05-16T12:48:31.057Z,11.20
2019-05-16T12:51:27.331Z,11.30
2019-05-16T12:54:23.995Z,11.30
2019-05-16T12:57:26.666Z,11.50
2019-05-16T13:00:18.981Z,11.30
2019-05-16T13:03:16.978Z,11.30
2019-05-16T13:06:13.246Z,11.10
2019-05-16T13:09:09.808Z,11.00
2019-05-16T13:12:07.040Z,11.10
2019-05-16T13:15:02.702Z,11.00
2019-05-16T13:17:59.733Z,10.90
2019-05-16T13:20:57.395Z,11.00
2019-05-16T13:23:52.725Z,11.00
2019-05-16T13:26:49.608Z,11.10
2019-05-16T13:29:47.651Z,11.00
2019-05-16T13:32:43.096Z,11.00
2019-05-16T13:35:39.886Z,11.00
2019-05-16T13:38:36.157Z,11.10
2019-05-16T13:41:34.453Z,11.10
2019-05-16T13:44:30.914Z,11.20
2019-05-16T13:47:27.292Z,11.20
2019-05-16T13:50:23.319Z,11.10
2019-05-16T13:53:20.192Z,10.90
2019-05-16T13:56:17.577Z,10.80
2019-05-16T13:59:17.165Z,10.80
2019-05-16T14:02:12.690Z,10.80
2019-05-16T14:05:11.654Z,10.80
2019-05-16T14:08:07.768Z,10.90
2019-05-16T14:11:08.950Z,11.00
2019-05-16T14:14:04.705Z,11.00
2019-05-16T14:16:59.719Z,10.80
2019-05-16T14:19:57.300Z,10.80
2019-05-16T14:22:57.147Z,11.00
2019-05-16T14:25:51.338Z,11.40
2019-05-16T14:28:48.871Z,11.70
2019-05-16T14:31:46.915Z,11.70
2019-05-16T14:34:50.227Z,11.80
2019-05-16T14:37:46.884Z,11.70
2019-05-16T14:40:43.140Z,11.60
2019-05-16T14:43:39.841Z,11.50
2019-05-16T14:46:38.200Z,11.40
2019-05-16T14:49:37.488Z,11.30
2019-05-16T14:52:36.430Z,11.40
2019-05-16T14:55:31.811Z,11.40
2019-05-16T14:58:31.001Z,11.40
2019-05-16T15:01:27.763Z,11.40
2019-05-16T15:04:29.822Z,11.50
2019-05-16T15:07:22.074Z,11.50
2019-05-16T15:10:19.124Z,11.60
2019-05-16T15:13:17.254Z,11.80
2019-05-16T15:16:12.019Z,11.90
2019-05-16T15:19:08.727Z,12.00
2019-05-16T15:22:07.882Z,12.20
2019-05-16T15:25:02.851Z,12.10
2019-05-16T15:28:00.554Z,12.10
2019-05-16T15:30:57.531Z,12.20
2019-05-16T15:33:54.273Z,12.50
2019-05-16T15:36:49.609Z,12.50
2019-05-16T15:39:47.609Z,12.70
2019-05-16T15:42:43.007Z,12.50
2019-05-16T15:45:45.142Z,12.50
2019-05-16T15:48:39.824Z,12.30
2019-05-16T15:51:36.946Z,12.10
2019-05-16T15:54:33.605Z,11.90
2019-05-16T15:57:32.686Z,11.70
2019-05-16T16:00:42.242Z,11.60
2019-05-16T16:03:38.706Z,11.50
2019-05-16T16:06:37.794Z,11.30
2019-05-16T16:09:32.714Z,11.10
2019-05-16T16:12:29.457Z,10.90
2019-05-16T16:15:28.056Z,10.80
2019-05-16T16:18:27.496Z,10.90
2019-05-16T16:21:27.451Z,11.00
2019-05-16T16:24:23.240Z,11.10
2019-05-16T16:27:19.783Z,11.10
2019-05-16T16:30:18.417Z,11.20
2019-05-16T16:33:24.981Z,11.30
2019-05-16T16:36:11.894Z,11.20
2019-05-16T16:39:09.021Z,11.20
2019-05-16T16:42:07.419Z,11.30
2019-05-16T16:45:03.531Z,11.20
2019-05-16T16:47:59.403Z,11.20
2019-05-16T16:50:57.452Z,11.20
2019-05-16T16:53:53.314Z,11.20
2019-05-16T16:56:50.641Z,11.20
2019-05-16T16:59:47.643Z,11.20
2019-05-16T17:02:59.347Z,11.10
2019-05-16T17:05:43.107Z,11.10
2019-05-16T17:08:38.869Z,11.00
2019-05-16T17:11:37.973Z,11.00
2019-05-16T17:14:36.887Z,11.10
2019-05-16T17:17:33.063Z,11.10
2019-05-16T17:20:29.958Z,11.10
2019-05-16T17:23:26.850Z,11.10
2019-05-16T17:26:22.627Z,11.10
2019-05-16T17:29:20.213Z,11.10
2019-05-16T17:32:16.718Z,11.10
2019-05-16T17:35:18.335Z,11.10
2019-05-16T17:38:12.739Z,11.10
2019-05-16T17:41:08.660Z,11.10
2019-05-16T17:44:04.390Z,11.00
2019-05-16T17:47:00.428Z,11.00
2019-05-16T17:49:57.461Z,11.00
2019-05-16T17:52:54.334Z,10.90
2019-05-16T17:55:50.473Z,10.90
2019-05-16T17:58:47.332Z,10.80
2019-05-16T18:01:46.362Z,10.80
2019-05-16T18:04:43.037Z,10.80
2019-05-16T18:07:40.439Z,10.80
2019-05-16T18:10:36.796Z,10.80
2019-05-16T18:13:32.607Z,10.70
2019-05-16T18:16:29.512Z,10.70
2019-05-16T18:19:26.515Z,10.70
2019-05-16T18:22:24.646Z,10.70
2019-05-16T18:25:23.428Z,10.70
2019-05-16T18:28:19.458Z,10.60
2019-05-16T18:31:17.231Z,10.60
2019-05-16T18:34:17.089Z,10.50
2019-05-16T18:37:17.158Z,10.50
2019-05-16T18:40:13.358Z,10.50
2019-05-16T18:43:12.530Z,10.50
2019-05-16T18:46:08.569Z,10.40
2019-05-16T18:49:07.084Z,10.40
2019-05-16T18:52:02.888Z,10.30
2019-05-16T18:54:59.322Z,10.30
2019-05-16T18:57:57.581Z,10.30
2019-05-16T19:00:58.469Z,10.30
2019-05-16T19:03:54.557Z,10.20
2019-05-16T19:06:51.692Z,10.20
2019-05-16T19:09:48.472Z,10.20
2019-05-16T19:12:47.545Z,10.20
2019-05-16T19:15:42.887Z,10.10
2019-05-16T19:18:39.982Z,10.10
2019-05-16T19:21:36.921Z,10.10
2019-05-16T19:24:33.109Z,10.10
2019-05-16T19:27:30.018Z,10.10
2019-05-16T19:30:27.120Z,10.10
2019-05-16T19:33:23.579Z,10.10
2019-05-16T19:36:20.218Z,10.00
2019-05-16T19:39:17.687Z,10.00
2019-05-16T19:42:13.911Z,9.90
2019-05-16T19:45:11.779Z,9.80
2019-05-16T19:48:09.071Z,9.80
2019-05-16T19:51:07.195Z,9.70
2019-05-16T19:54:02.828Z,9.70
2019-05-16T19:56:58.975Z,9.70
2019-05-16T19:59:56.667Z,9.70
2019-05-16T20:02:53.690Z,9.70
2019-05-16T20:05:52.483Z,9.70
2019-05-16T20:08:48.857Z,9.60
2019-05-16T20:11:46.372Z,9.60
2019-05-16T20:14:43.455Z,9.60
2019-05-16T20:17:53.902Z,9.60
2019-05-16T20:20:38.066Z,9.60
2019-05-16T20:23:36.847Z,9.60
2019-05-16T20:26:32.524Z,9.60
2019-05-16T20:29:29.065Z,9.70
2019-05-16T20:32:27.636Z,9.60
2019-05-16T20:35:26.694Z,9.60
2019-05-16T20:38:26.625Z,9.60
2019-05-16T20:41:23.274Z,9.60
2019-05-16T20:44:22.567Z,9.60
2019-05-16T20:47:21.866Z,9.60
2019-05-16T20:50:19.449Z,9.60
2019-05-16T20:53:19.749Z,9.60
2019-05-16T20:56:18.248Z,9.60
2019-05-16T20:59:18.265Z,9.60
2019-05-16T21:02:16.348Z,9.60
2019-05-16T21:05:13.979Z,9.60
2019-05-16T21:08:10.489Z,9.60
2019-05-16T21:11:07.700Z,9.60
2019-05-16T21:14:04.340Z,9.60
2019-05-16T21:17:02.242Z,9.50
2019-05-16T21:19:58.644Z,9.40
2019-05-16T21:22:56.424Z,9.30
2019-05-16T21:25:52.849Z,9.30
2019-05-16T21:28:49.268Z,9.20
2019-05-16T21:31:47.317Z,9.20
2019-05-16T21:34:43.010Z,9.10
2019-05-16T21:37:41.396Z,9.10
2019-05-16T21:40:37.754Z,9.10
2019-05-16T21:43:33.845Z,9.10
2019-05-16T21:46:30.702Z,9.10
2019-05-16T21:49:30.896Z,9.10
2019-05-16T21:52:28.867Z,9.20
2019-05-16T21:55:27.311Z,9.20
2019-05-16T21:58:32.526Z,9.30
2019-05-16T22:01:30.182Z,9.30
2019-05-16T22:04:25.891Z,9.30
2019-05-16T22:07:33.055Z,9.30
2019-05-16T22:10:23.775Z,9.30
2019-05-16T22:13:21.718Z,9.30
2019-05-16T22:16:18.414Z,9.30
2019-05-16T22:19:16.492Z,9.40
2019-05-16T22:22:13.793Z,9.40
2019-05-16T22:25:14.031Z,9.40
2019-05-16T22:28:10.582Z,9.40
2019-05-16T22:31:07.481Z,9.40
2019-05-16T22:34:03.782Z,9.40
2019-05-16T22:36:59.970Z,9.40
2019-05-16T22:39:57.197Z,9.40
2019-05-16T22:42:53.790Z,9.40
2019-05-16T22:45:50.626Z,9.40
2019-05-16T22:48:46.899Z,9.40
2019-05-16T22:51:45.191Z,9.40
2019-05-16T22:54:40.802Z,9.40
2019-05-16T22:57:37.351Z,9.40
2019-05-16T23:00:34.321Z,9.40
2019-05-16T23:03:31.028Z,9.30
2019-05-16T23:06:26.983Z,9.20
2019-05-16T23:09:23.740Z,9.20
2019-05-16T23:12:19.991Z,9.10
2019-05-16T23:15:17.210Z,9.00
2019-05-16T23:18:14.030Z,8.90
2019-05-16T23:21:10.800Z,8.90
2019-05-16T23:24:07.483Z,8.90
2019-05-16T23:27:03.084Z,8.90
2019-05-16T23:29:58.892Z,8.80
2019-05-16T23:32:56.276Z,8.70
2019-05-16T23:35:53.177Z,8.70
2019-05-16T23:38:49.321Z,8.70
2019-05-16T23:41:47.442Z,8.70
2019-05-16T23:44:44.615Z,8.80
2019-05-16T23:47:41.352Z,8.90
2019-05-16T23:50:38.102Z,8.90
2019-05-16T23:53:36.932Z,8.90
2019-05-16T23:56:31.999Z,8.90
2019-05-16T23:59:28.918Z,9.00
